sensor_id;sensor_type;location;lat;lon;timestamp;temperature;humidity
40868;DHT22;26586;50.708;22.412;2023-09-19T00:02:03;23.90;59.20
40868;DHT22;26586;50.708;22.412;2023-09-19T00:04:33;23.90;59.20
40868;DHT22;26586;50.708;22.412;2023-09-19T00:07:00;23.90;59.20
40868;DHT22;26586;50.708;22.412;2023-09-19T00:09:28;23.90;59.20
40868;DHT22;26586;50.708;22.412;2023-09-19T00:11:54;23.90;59.20
40868;DHT22;26586;50.708;22.412;2023-09-19T00:14:20;23.90;59.20
40868;DHT22;26586;50.708;22.412;2023-09-19T00:16:50;23.90;59.20
40868;DHT22;26586;50.708;22.412;2023-09-19T00:19:16;23.80;59.20
40868;DHT22;26586;50.708;22.412;2023-09-19T00:21:43;23.80;59.20
40868;DHT22;26586;50.708;22.412;2023-09-19T00:24:09;23.80;59.30
40868;DHT22;26586;50.708;22.412;2023-09-19T00:26:35;23.80;59.30
40868;DHT22;26586;50.708;22.412;2023-09-19T00:29:02;23.80;59.40
40868;DHT22;26586;50.708;22.412;2023-09-19T00:31:29;23.80;59.40
40868;DHT22;26586;50.708;22.412;2023-09-19T00:33:55;23.80;59.50
40868;DHT22;26586;50.708;22.412;2023-09-19T00:36:26;23.70;59.40
40868;DHT22;26586;50.708;22.412;2023-09-19T00:38:52;23.70;59.40
40868;DHT22;26586;50.708;22.412;2023-09-19T00:41:19;23.70;59.40
40868;DHT22;26586;50.708;22.412;2023-09-19T00:43:45;23.70;59.70
40868;DHT22;26586;50.708;22.412;2023-09-19T00:46:11;23.70;59.60
40868;DHT22;26586;50.708;22.412;2023-09-19T00:48:40;23.70;59.60
40868;DHT22;26586;50.708;22.412;2023-09-19T00:51:10;23.60;59.60
40868;DHT22;26586;50.708;22.412;2023-09-19T00:53:36;23.70;59.60
40868;DHT22;26586;50.708;22.412;2023-09-19T00:56:04;23.60;59.60
40868;DHT22;26586;50.708;22.412;2023-09-19T00:58:34;23.60;59.80
40868;DHT22;26586;50.708;22.412;2023-09-19T01:01:01;23.60;59.90
40868;DHT22;26586;50.708;22.412;2023-09-19T01:03:33;23.60;59.90
40868;DHT22;26586;50.708;22.412;2023-09-19T01:06:00;23.60;59.80
40868;DHT22;26586;50.708;22.412;2023-09-19T01:08:29;23.60;59.80
40868;DHT22;26586;50.708;22.412;2023-09-19T01:11:01;23.60;59.90
40868;DHT22;26586;50.708;22.412;2023-09-19T01:13:55;23.50;59.90
40868;DHT22;26586;50.708;22.412;2023-09-19T01:16:43;23.50;59.90
40868;DHT22;26586;50.708;22.412;2023-09-19T01:30:19;23.40;60.10
40868;DHT22;26586;50.708;22.412;2023-09-19T01:32:51;23.40;60.20
40868;DHT22;26586;50.708;22.412;2023-09-19T01:35:18;23.40;60.30
40868;DHT22;26586;50.708;22.412;2023-09-19T01:37:45;23.40;60.30
40868;DHT22;26586;50.708;22.412;2023-09-19T01:40:14;23.40;60.50
40868;DHT22;26586;50.708;22.412;2023-09-19T01:43:09;23.30;60.50
40868;DHT22;26586;50.708;22.412;2023-09-19T01:48:29;23.30;60.60
40868;DHT22;26586;50.708;22.412;2023-09-19T01:51:03;23.30;60.50
40868;DHT22;26586;50.708;22.412;2023-09-19T01:53:57;23.30;60.70
40868;DHT22;26586;50.708;22.412;2023-09-19T01:57:14;23.30;60.90
40868;DHT22;26586;50.708;22.412;2023-09-19T01:59:41;23.30;60.80
40868;DHT22;26586;50.708;22.412;2023-09-19T02:02:09;23.30;60.80
40868;DHT22;26586;50.708;22.412;2023-09-19T02:04:36;23.30;60.90
40868;DHT22;26586;50.708;22.412;2023-09-19T02:07:02;23.30;60.90
40868;DHT22;26586;50.708;22.412;2023-09-19T02:09:31;23.20;60.90
40868;DHT22;26586;50.708;22.412;2023-09-19T02:12:01;23.30;61.00
40868;DHT22;26586;50.708;22.412;2023-09-19T02:14:30;23.20;61.10
40868;DHT22;26586;50.708;22.412;2023-09-19T02:16:56;23.20;61.00
40868;DHT22;26586;50.708;22.412;2023-09-19T02:19:23;23.20;61.10
40868;DHT22;26586;50.708;22.412;2023-09-19T02:21:49;23.20;61.10
40868;DHT22;26586;50.708;22.412;2023-09-19T02:24:15;23.20;61.10
40868;DHT22;26586;50.708;22.412;2023-09-19T02:26:42;23.10;61.00
40868;DHT22;26586;50.708;22.412;2023-09-19T02:29:08;23.10;61.10
40868;DHT22;26586;50.708;22.412;2023-09-19T02:31:38;23.10;61.10
40868;DHT22;26586;50.708;22.412;2023-09-19T02:34:05;23.10;61.10
40868;DHT22;26586;50.708;22.412;2023-09-19T02:36:32;23.10;61.20
40868;DHT22;26586;50.708;22.412;2023-09-19T02:38:59;23.10;61.20
40868;DHT22;26586;50.708;22.412;2023-09-19T02:41:25;23.10;61.10
40868;DHT22;26586;50.708;22.412;2023-09-19T02:43:51;23.10;61.20
40868;DHT22;26586;50.708;22.412;2023-09-19T02:46:17;23.10;61.30
40868;DHT22;26586;50.708;22.412;2023-09-19T02:48:44;23.00;61.20
40868;DHT22;26586;50.708;22.412;2023-09-19T02:51:10;23.00;61.20
40868;DHT22;26586;50.708;22.412;2023-09-19T02:53:36;23.00;61.10
40868;DHT22;26586;50.708;22.412;2023-09-19T02:56:02;23.00;61.20
40868;DHT22;26586;50.708;22.412;2023-09-19T02:58:30;23.00;61.40
40868;DHT22;26586;50.708;22.412;2023-09-19T03:01:08;23.00;61.40
40868;DHT22;26586;50.708;22.412;2023-09-19T03:03:35;23.00;61.30
40868;DHT22;26586;50.708;22.412;2023-09-19T03:06:03;23.00;61.30
40868;DHT22;26586;50.708;22.412;2023-09-19T03:08:30;23.00;61.40
40868;DHT22;26586;50.708;22.412;2023-09-19T03:10:56;23.00;61.40
40868;DHT22;26586;50.708;22.412;2023-09-19T03:13:23;22.90;61.70
40868;DHT22;26586;50.708;22.412;2023-09-19T03:15:49;23.00;61.50
40868;DHT22;26586;50.708;22.412;2023-09-19T03:18:16;23.00;61.40
40868;DHT22;26586;50.708;22.412;2023-09-19T03:20:42;22.90;61.40
40868;DHT22;26586;50.708;22.412;2023-09-19T03:23:09;22.90;61.30
40868;DHT22;26586;50.708;22.412;2023-09-19T03:25:35;22.90;61.30
40868;DHT22;26586;50.708;22.412;2023-09-19T03:28:03;22.90;61.30
40868;DHT22;26586;50.708;22.412;2023-09-19T03:30:31;22.90;61.30
40868;DHT22;26586;50.708;22.412;2023-09-19T03:32:59;22.90;61.30
40868;DHT22;26586;50.708;22.412;2023-09-19T03:35:28;22.90;61.30
40868;DHT22;26586;50.708;22.412;2023-09-19T03:37:54;22.90;61.40
40868;DHT22;26586;50.708;22.412;2023-09-19T03:40:20;22.90;61.60
40868;DHT22;26586;50.708;22.412;2023-09-19T03:42:47;22.80;61.40
40868;DHT22;26586;50.708;22.412;2023-09-19T03:45:14;22.80;61.40
40868;DHT22;26586;50.708;22.412;2023-09-19T03:47:40;22.80;62.00
40868;DHT22;26586;50.708;22.412;2023-09-19T03:50:07;22.90;61.80
40868;DHT22;26586;50.708;22.412;2023-09-19T03:52:46;22.90;61.90
40868;DHT22;26586;50.708;22.412;2023-09-19T03:55:12;22.80;61.70
40868;DHT22;26586;50.708;22.412;2023-09-19T03:57:39;22.80;61.70
40868;DHT22;26586;50.708;22.412;2023-09-19T04:00:06;22.80;61.50
40868;DHT22;26586;50.708;22.412;2023-09-19T04:02:38;22.80;61.70
40868;DHT22;26586;50.708;22.412;2023-09-19T04:05:05;22.80;61.50
40868;DHT22;26586;50.708;22.412;2023-09-19T04:07:32;22.80;61.80
40868;DHT22;26586;50.708;22.412;2023-09-19T04:10:16;22.80;62.10
40868;DHT22;26586;50.708;22.412;2023-09-19T04:12:53;22.80;62.10
40868;DHT22;26586;50.708;22.412;2023-09-19T04:15:20;22.80;61.80
40868;DHT22;26586;50.708;22.412;2023-09-19T04:17:50;22.80;61.90
40868;DHT22;26586;50.708;22.412;2023-09-19T04:20:17;22.80;62.40
40868;DHT22;26586;50.708;22.412;2023-09-19T04:22:46;22.80;62.00
40868;DHT22;26586;50.708;22.412;2023-09-19T04:25:13;22.80;61.80
40868;DHT22;26586;50.708;22.412;2023-09-19T04:27:39;22.80;61.60
40868;DHT22;26586;50.708;22.412;2023-09-19T04:30:08;22.80;61.70
40868;DHT22;26586;50.708;22.412;2023-09-19T04:32:41;22.80;61.90
40868;DHT22;26586;50.708;22.412;2023-09-19T04:35:09;22.80;62.20
40868;DHT22;26586;50.708;22.412;2023-09-19T04:37:39;22.80;61.50
40868;DHT22;26586;50.708;22.412;2023-09-19T04:40:07;22.80;61.60
40868;DHT22;26586;50.708;22.412;2023-09-19T04:42:39;22.70;61.80
40868;DHT22;26586;50.708;22.412;2023-09-19T04:45:06;22.70;61.60
40868;DHT22;26586;50.708;22.412;2023-09-19T04:47:33;22.70;62.50
40868;DHT22;26586;50.708;22.412;2023-09-19T04:49:59;22.70;61.90
40868;DHT22;26586;50.708;22.412;2023-09-19T04:52:26;22.70;62.40
40868;DHT22;26586;50.708;22.412;2023-09-19T04:54:52;22.70;62.70
40868;DHT22;26586;50.708;22.412;2023-09-19T04:57:18;22.80;62.10
40868;DHT22;26586;50.708;22.412;2023-09-19T04:59:44;22.70;62.40
40868;DHT22;26586;50.708;22.412;2023-09-19T05:02:11;22.70;61.90
40868;DHT22;26586;50.708;22.412;2023-09-19T05:04:38;22.70;62.10
40868;DHT22;26586;50.708;22.412;2023-09-19T05:07:04;22.70;62.30
40868;DHT22;26586;50.708;22.412;2023-09-19T05:09:30;22.70;62.10
40868;DHT22;26586;50.708;22.412;2023-09-19T05:12:00;22.70;62.00
40868;DHT22;26586;50.708;22.412;2023-09-19T05:14:27;22.70;61.90
40868;DHT22;26586;50.708;22.412;2023-09-19T05:16:53;22.70;62.40
40868;DHT22;26586;50.708;22.412;2023-09-19T05:19:19;22.70;62.10
40868;DHT22;26586;50.708;22.412;2023-09-19T05:21:45;22.70;62.00
40868;DHT22;26586;50.708;22.412;2023-09-19T05:24:13;22.70;62.10
40868;DHT22;26586;50.708;22.412;2023-09-19T05:26:40;22.70;62.00
40868;DHT22;26586;50.708;22.412;2023-09-19T05:29:06;22.70;62.10
40868;DHT22;26586;50.708;22.412;2023-09-19T05:31:34;22.60;62.20
40868;DHT22;26586;50.708;22.412;2023-09-19T05:34:02;22.60;62.20
40868;DHT22;26586;50.708;22.412;2023-09-19T05:36:29;22.60;62.20
40868;DHT22;26586;50.708;22.412;2023-09-19T05:38:55;22.60;62.20
40868;DHT22;26586;50.708;22.412;2023-09-19T05:41:22;22.60;62.30
40868;DHT22;26586;50.708;22.412;2023-09-19T05:43:49;22.60;62.30
40868;DHT22;26586;50.708;22.412;2023-09-19T05:46:16;22.60;62.40
40868;DHT22;26586;50.708;22.412;2023-09-19T05:48:43;22.60;62.40
40868;DHT22;26586;50.708;22.412;2023-09-19T05:51:10;22.60;62.30
40868;DHT22;26586;50.708;22.412;2023-09-19T05:53:36;22.60;62.40
40868;DHT22;26586;50.708;22.412;2023-09-19T05:56:02;22.60;62.30
40868;DHT22;26586;50.708;22.412;2023-09-19T05:58:28;22.70;62.40
40868;DHT22;26586;50.708;22.412;2023-09-19T06:00:55;22.70;62.40
40868;DHT22;26586;50.708;22.412;2023-09-19T06:03:23;22.70;62.40
40868;DHT22;26586;50.708;22.412;2023-09-19T06:05:49;22.70;62.40
40868;DHT22;26586;50.708;22.412;2023-09-19T06:08:17;22.70;62.40
40868;DHT22;26586;50.708;22.412;2023-09-19T06:10:43;22.60;62.40
40868;DHT22;26586;50.708;22.412;2023-09-19T06:13:09;22.60;62.40
40868;DHT22;26586;50.708;22.412;2023-09-19T06:15:36;22.70;62.40
40868;DHT22;26586;50.708;22.412;2023-09-19T06:18:03;22.70;62.40
40868;DHT22;26586;50.708;22.412;2023-09-19T06:20:31;22.70;62.30
40868;DHT22;26586;50.708;22.412;2023-09-19T06:22:58;22.70;62.40
40868;DHT22;26586;50.708;22.412;2023-09-19T06:25:25;22.70;62.40
40868;DHT22;26586;50.708;22.412;2023-09-19T06:27:53;22.70;62.50
40868;DHT22;26586;50.708;22.412;2023-09-19T06:30:24;22.70;62.50
40868;DHT22;26586;50.708;22.412;2023-09-19T06:32:58;22.70;62.80
40868;DHT22;26586;50.708;22.412;2023-09-19T06:35:25;22.70;62.70
40868;DHT22;26586;50.708;22.412;2023-09-19T06:37:55;22.70;63.00
40868;DHT22;26586;50.708;22.412;2023-09-19T06:40:23;22.70;62.90
40868;DHT22;26586;50.708;22.412;2023-09-19T06:42:51;22.70;63.00
40868;DHT22;26586;50.708;22.412;2023-09-19T06:45:19;22.70;63.10
40868;DHT22;26586;50.708;22.412;2023-09-19T06:47:46;22.80;63.20
40868;DHT22;26586;50.708;22.412;2023-09-19T06:50:16;22.80;63.30
40868;DHT22;26586;50.708;22.412;2023-09-19T06:52:45;22.80;63.30
40868;DHT22;26586;50.708;22.412;2023-09-19T06:55:14;22.80;63.20
40868;DHT22;26586;50.708;22.412;2023-09-19T06:57:42;22.80;63.40
40868;DHT22;26586;50.708;22.412;2023-09-19T07:00:13;22.80;63.30
40868;DHT22;26586;50.708;22.412;2023-09-19T07:03:07;22.80;63.40
40868;DHT22;26586;50.708;22.412;2023-09-19T07:05:39;22.80;63.50
40868;DHT22;26586;50.708;22.412;2023-09-19T07:08:07;22.80;63.50
40868;DHT22;26586;50.708;22.412;2023-09-19T07:10:34;22.90;63.70
40868;DHT22;26586;50.708;22.412;2023-09-19T07:13:05;22.80;63.60
40868;DHT22;26586;50.708;22.412;2023-09-19T07:15:35;22.90;63.80
40868;DHT22;26586;50.708;22.412;2023-09-19T07:18:02;22.90;63.90
40868;DHT22;26586;50.708;22.412;2023-09-19T07:20:29;22.90;64.00
40868;DHT22;26586;50.708;22.412;2023-09-19T07:23:00;22.90;64.30
40868;DHT22;26586;50.708;22.412;2023-09-19T07:25:28;22.90;64.40
40868;DHT22;26586;50.708;22.412;2023-09-19T07:27:56;23.00;64.40
40868;DHT22;26586;50.708;22.412;2023-09-19T07:30:26;23.00;64.40
40868;DHT22;26586;50.708;22.412;2023-09-19T07:32:53;23.00;64.30
40868;DHT22;26586;50.708;22.412;2023-09-19T07:35:19;23.00;64.20
40868;DHT22;26586;50.708;22.412;2023-09-19T07:37:48;23.10;64.40
40868;DHT22;26586;50.708;22.412;2023-09-19T07:40:15;23.10;64.30
40868;DHT22;26586;50.708;22.412;2023-09-19T07:42:42;23.10;64.10
40868;DHT22;26586;50.708;22.412;2023-09-19T07:45:10;23.10;64.00
40868;DHT22;26586;50.708;22.412;2023-09-19T07:47:50;23.20;64.00
40868;DHT22;26586;50.708;22.412;2023-09-19T07:50:17;23.20;63.80
40868;DHT22;26586;50.708;22.412;2023-09-19T07:52:45;23.20;63.80
40868;DHT22;26586;50.708;22.412;2023-09-19T07:55:12;23.20;63.30
40868;DHT22;26586;50.708;22.412;2023-09-19T07:57:45;23.30;63.10
40868;DHT22;26586;50.708;22.412;2023-09-19T08:00:13;23.30;63.00
40868;DHT22;26586;50.708;22.412;2023-09-19T08:02:40;23.40;63.00
40868;DHT22;26586;50.708;22.412;2023-09-19T08:05:09;23.40;62.60
40868;DHT22;26586;50.708;22.412;2023-09-19T08:07:43;23.40;62.20
40868;DHT22;26586;50.708;22.412;2023-09-19T08:10:10;23.50;62.10
40868;DHT22;26586;50.708;22.412;2023-09-19T08:12:40;23.50;61.80
40868;DHT22;26586;50.708;22.412;2023-09-19T08:15:14;23.50;61.60
40868;DHT22;26586;50.708;22.412;2023-09-19T08:17:40;23.50;61.60
40868;DHT22;26586;50.708;22.412;2023-09-19T08:20:08;23.60;61.60
40868;DHT22;26586;50.708;22.412;2023-09-19T08:22:59;23.60;61.40
40868;DHT22;26586;50.708;22.412;2023-09-19T08:25:26;23.60;61.40
40868;DHT22;26586;50.708;22.412;2023-09-19T08:27:52;23.70;61.20
40868;DHT22;26586;50.708;22.412;2023-09-19T08:30:20;23.70;61.30
40868;DHT22;26586;50.708;22.412;2023-09-19T08:33:01;23.70;61.20
40868;DHT22;26586;50.708;22.412;2023-09-19T08:35:35;23.70;61.10
40868;DHT22;26586;50.708;22.412;2023-09-19T08:38:01;23.70;61.00
40868;DHT22;26586;50.708;22.412;2023-09-19T08:40:36;23.70;61.00
40868;DHT22;26586;50.708;22.412;2023-09-19T08:43:02;23.80;61.00
40868;DHT22;26586;50.708;22.412;2023-09-19T08:45:31;23.70;60.90
40868;DHT22;26586;50.708;22.412;2023-09-19T08:50:45;23.80;61.60
40868;DHT22;26586;50.708;22.412;2023-09-19T08:56:07;23.80;60.90
40868;DHT22;26586;50.708;22.412;2023-09-19T08:58:50;23.80;60.80
40868;DHT22;26586;50.708;22.412;2023-09-19T09:01:20;23.90;60.80
40868;DHT22;26586;50.708;22.412;2023-09-19T09:03:53;23.90;60.90
40868;DHT22;26586;50.708;22.412;2023-09-19T09:06:21;23.90;61.00
40868;DHT22;26586;50.708;22.412;2023-09-19T09:08:47;23.90;61.00
40868;DHT22;26586;50.708;22.412;2023-09-19T09:11:15;23.90;60.90
40868;DHT22;26586;50.708;22.412;2023-09-19T09:13:45;23.80;60.90
40868;DHT22;26586;50.708;22.412;2023-09-19T09:16:13;23.90;61.00
40868;DHT22;26586;50.708;22.412;2023-09-19T09:18:39;23.90;61.00
40868;DHT22;26586;50.708;22.412;2023-09-19T09:21:06;23.80;61.00
40868;DHT22;26586;50.708;22.412;2023-09-19T09:23:32;23.90;61.00
40868;DHT22;26586;50.708;22.412;2023-09-19T09:26:00;23.90;61.10
40868;DHT22;26586;50.708;22.412;2023-09-19T09:28:30;23.90;61.10
40868;DHT22;26586;50.708;22.412;2023-09-19T09:31:00;23.90;61.10
40868;DHT22;26586;50.708;22.412;2023-09-19T09:33:35;23.90;61.20
40868;DHT22;26586;50.708;22.412;2023-09-19T09:36:02;23.90;61.20
40868;DHT22;26586;50.708;22.412;2023-09-19T09:38:30;23.90;61.10
40868;DHT22;26586;50.708;22.412;2023-09-19T09:41:09;23.90;61.20
40868;DHT22;26586;50.708;22.412;2023-09-19T09:43:39;23.80;61.20
40868;DHT22;26586;50.708;22.412;2023-09-19T09:46:08;23.80;61.20
40868;DHT22;26586;50.708;22.412;2023-09-19T09:49:07;23.80;61.30
40868;DHT22;26586;50.708;22.412;2023-09-19T09:52:05;23.80;61.30
40868;DHT22;26586;50.708;22.412;2023-09-19T09:55:19;23.80;61.30
40868;DHT22;26586;50.708;22.412;2023-09-19T09:57:47;23.80;61.40
40868;DHT22;26586;50.708;22.412;2023-09-19T10:00:26;23.80;61.50
40868;DHT22;26586;50.708;22.412;2023-09-19T10:02:59;23.80;61.70
40868;DHT22;26586;50.708;22.412;2023-09-19T10:05:26;23.80;61.70
40868;DHT22;26586;50.708;22.412;2023-09-19T10:08:13;23.80;61.80
40868;DHT22;26586;50.708;22.412;2023-09-19T10:10:47;23.80;61.70
40868;DHT22;26586;50.708;22.412;2023-09-19T10:13:21;23.70;61.70
40868;DHT22;26586;50.708;22.412;2023-09-19T10:15:53;23.80;61.80
40868;DHT22;26586;50.708;22.412;2023-09-19T10:18:26;23.80;61.80
40868;DHT22;26586;50.708;22.412;2023-09-19T10:20:54;23.80;61.90
40868;DHT22;26586;50.708;22.412;2023-09-19T10:23:27;23.70;62.00
40868;DHT22;26586;50.708;22.412;2023-09-19T10:25:59;23.70;62.10
40868;DHT22;26586;50.708;22.412;2023-09-19T10:28:28;23.70;62.10
40868;DHT22;26586;50.708;22.412;2023-09-19T10:30:57;23.70;62.10
40868;DHT22;26586;50.708;22.412;2023-09-19T10:33:25;23.70;62.20
40868;DHT22;26586;50.708;22.412;2023-09-19T10:35:52;23.70;62.20
40868;DHT22;26586;50.708;22.412;2023-09-19T10:38:25;23.70;62.20
40868;DHT22;26586;50.708;22.412;2023-09-19T10:40:57;23.70;62.20
40868;DHT22;26586;50.708;22.412;2023-09-19T10:43:29;23.70;62.40
40868;DHT22;26586;50.708;22.412;2023-09-19T10:46:01;23.70;62.40
40868;DHT22;26586;50.708;22.412;2023-09-19T10:48:30;23.70;62.50
40868;DHT22;26586;50.708;22.412;2023-09-19T10:51:12;23.70;62.40
40868;DHT22;26586;50.708;22.412;2023-09-19T10:56:36;23.70;62.60
40868;DHT22;26586;50.708;22.412;2023-09-19T11:01:48;23.70;62.80
40868;DHT22;26586;50.708;22.412;2023-09-19T11:07:03;23.70;62.90
40868;DHT22;26586;50.708;22.412;2023-09-19T11:09:51;23.70;63.40
40868;DHT22;26586;50.708;22.412;2023-09-19T11:14:58;23.70;63.80
40868;DHT22;26586;50.708;22.412;2023-09-19T11:17:31;23.70;64.00
40868;DHT22;26586;50.708;22.412;2023-09-19T11:30:35;23.70;64.50
40868;DHT22;26586;50.708;22.412;2023-09-19T11:39:11;23.60;65.10
40868;DHT22;26586;50.708;22.412;2023-09-19T11:46:20;23.60;65.40
40868;DHT22;26586;50.708;22.412;2023-09-19T11:48:51;23.60;65.50
40868;DHT22;26586;50.708;22.412;2023-09-19T11:51:19;23.60;65.50
40868;DHT22;26586;50.708;22.412;2023-09-19T11:53:51;23.60;65.50
40868;DHT22;26586;50.708;22.412;2023-09-19T11:56:25;23.60;65.70
40868;DHT22;26586;50.708;22.412;2023-09-19T11:58:56;23.50;65.70
40868;DHT22;26586;50.708;22.412;2023-09-19T12:01:30;23.50;65.80
40868;DHT22;26586;50.708;22.412;2023-09-19T12:03:59;23.50;66.00
40868;DHT22;26586;50.708;22.412;2023-09-19T12:06:28;23.50;66.10
40868;DHT22;26586;50.708;22.412;2023-09-19T12:08:55;23.50;66.00
40868;DHT22;26586;50.708;22.412;2023-09-19T12:11:30;23.50;65.90
40868;DHT22;26586;50.708;22.412;2023-09-19T12:14:00;23.50;66.20
40868;DHT22;26586;50.708;22.412;2023-09-19T12:16:34;23.50;66.60
40868;DHT22;26586;50.708;22.412;2023-09-19T12:19:18;23.50;66.30
40868;DHT22;26586;50.708;22.412;2023-09-19T12:22:01;23.40;66.50
40868;DHT22;26586;50.708;22.412;2023-09-19T12:24:32;23.40;66.50
40868;DHT22;26586;50.708;22.412;2023-09-19T12:27:06;23.40;66.50
40868;DHT22;26586;50.708;22.412;2023-09-19T12:29:47;23.40;66.60
40868;DHT22;26586;50.708;22.412;2023-09-19T12:32:36;23.40;66.50
40868;DHT22;26586;50.708;22.412;2023-09-19T12:35:09;23.40;66.60
40868;DHT22;26586;50.708;22.412;2023-09-19T12:37:54;23.40;66.50
40868;DHT22;26586;50.708;22.412;2023-09-19T12:40:22;23.40;66.80
40868;DHT22;26586;50.708;22.412;2023-09-19T12:42:55;23.40;66.90
40868;DHT22;26586;50.708;22.412;2023-09-19T12:45:21;23.30;66.90
40868;DHT22;26586;50.708;22.412;2023-09-19T12:48:19;23.30;66.80
40868;DHT22;26586;50.708;22.412;2023-09-19T12:53:40;23.30;66.90
40868;DHT22;26586;50.708;22.412;2023-09-19T12:56:14;23.30;66.90
40868;DHT22;26586;50.708;22.412;2023-09-19T12:58:55;23.30;67.00
40868;DHT22;26586;50.708;22.412;2023-09-19T13:01:23;23.30;67.00
40868;DHT22;26586;50.708;22.412;2023-09-19T13:04:16;23.30;67.00
40868;DHT22;26586;50.708;22.412;2023-09-19T13:06:47;23.30;67.00
40868;DHT22;26586;50.708;22.412;2023-09-19T13:09:16;23.30;67.20
40868;DHT22;26586;50.708;22.412;2023-09-19T13:11:43;23.30;67.30
40868;DHT22;26586;50.708;22.412;2023-09-19T13:14:22;23.30;67.50
40868;DHT22;26586;50.708;22.412;2023-09-19T13:17:06;23.30;67.50
40868;DHT22;26586;50.708;22.412;2023-09-19T13:19:47;23.30;67.60
40868;DHT22;26586;50.708;22.412;2023-09-19T13:22:41;23.30;67.50
40868;DHT22;26586;50.708;22.412;2023-09-19T13:25:17;23.30;67.60
40868;DHT22;26586;50.708;22.412;2023-09-19T13:27:46;23.30;67.40
40868;DHT22;26586;50.708;22.412;2023-09-19T13:30:14;23.30;67.50
40868;DHT22;26586;50.708;22.412;2023-09-19T13:32:41;23.30;67.50
40868;DHT22;26586;50.708;22.412;2023-09-19T13:35:11;23.30;67.60
40868;DHT22;26586;50.708;22.412;2023-09-19T13:37:41;23.30;67.70
40868;DHT22;26586;50.708;22.412;2023-09-19T13:40:14;23.30;67.70
40868;DHT22;26586;50.708;22.412;2023-09-19T13:42:41;23.30;67.90
40868;DHT22;26586;50.708;22.412;2023-09-19T13:45:11;23.30;68.10
40868;DHT22;26586;50.708;22.412;2023-09-19T13:47:39;23.30;67.90
40868;DHT22;26586;50.708;22.412;2023-09-19T13:50:06;23.30;68.00
40868;DHT22;26586;50.708;22.412;2023-09-19T13:52:38;23.30;67.90
40868;DHT22;26586;50.708;22.412;2023-09-19T13:55:04;23.30;67.30
40868;DHT22;26586;50.708;22.412;2023-09-19T13:57:32;23.30;67.90
40868;DHT22;26586;50.708;22.412;2023-09-19T14:00:00;23.20;67.70
40868;DHT22;26586;50.708;22.412;2023-09-19T14:02:26;23.30;67.90
40868;DHT22;26586;50.708;22.412;2023-09-19T14:04:52;23.30;68.20
40868;DHT22;26586;50.708;22.412;2023-09-19T14:07:18;23.30;68.20
40868;DHT22;26586;50.708;22.412;2023-09-19T14:09:46;23.30;68.20
40868;DHT22;26586;50.708;22.412;2023-09-19T14:12:13;23.30;68.30
40868;DHT22;26586;50.708;22.412;2023-09-19T14:14:40;23.30;68.20
40868;DHT22;26586;50.708;22.412;2023-09-19T14:17:06;23.30;67.90
40868;DHT22;26586;50.708;22.412;2023-09-19T14:19:33;23.30;68.20
40868;DHT22;26586;50.708;22.412;2023-09-19T14:22:00;23.30;68.10
40868;DHT22;26586;50.708;22.412;2023-09-19T14:24:33;23.30;68.00
40868;DHT22;26586;50.708;22.412;2023-09-19T14:27:00;23.30;68.00
40868;DHT22;26586;50.708;22.412;2023-09-19T14:29:26;23.30;68.10
40868;DHT22;26586;50.708;22.412;2023-09-19T14:31:52;23.30;67.90
40868;DHT22;26586;50.708;22.412;2023-09-19T14:34:21;23.30;67.80
40868;DHT22;26586;50.708;22.412;2023-09-19T14:36:47;23.30;68.00
40868;DHT22;26586;50.708;22.412;2023-09-19T14:39:15;23.20;68.00
40868;DHT22;26586;50.708;22.412;2023-09-19T14:41:43;23.30;67.80
40868;DHT22;26586;50.708;22.412;2023-09-19T14:44:10;23.20;67.70
40868;DHT22;26586;50.708;22.412;2023-09-19T14:46:36;23.20;67.80
40868;DHT22;26586;50.708;22.412;2023-09-19T14:49:03;23.20;68.00
40868;DHT22;26586;50.708;22.412;2023-09-19T14:51:30;23.20;67.90
40868;DHT22;26586;50.708;22.412;2023-09-19T14:53:57;23.30;68.10
40868;DHT22;26586;50.708;22.412;2023-09-19T14:56:24;23.30;68.40
40868;DHT22;26586;50.708;22.412;2023-09-19T14:58:51;23.30;68.30
40868;DHT22;26586;50.708;22.412;2023-09-19T15:01:17;23.30;68.60
40868;DHT22;26586;50.708;22.412;2023-09-19T15:03:44;23.30;69.00
40868;DHT22;26586;50.708;22.412;2023-09-19T15:06:12;23.20;69.40
40868;DHT22;26586;50.708;22.412;2023-09-19T15:08:47;23.20;69.80
40868;DHT22;26586;50.708;22.412;2023-09-19T15:11:14;23.30;69.80
40868;DHT22;26586;50.708;22.412;2023-09-19T15:13:44;23.30;70.00
40868;DHT22;26586;50.708;22.412;2023-09-19T15:16:14;23.20;70.20
40868;DHT22;26586;50.708;22.412;2023-09-19T15:18:42;23.20;69.60
40868;DHT22;26586;50.708;22.412;2023-09-19T15:21:10;23.30;69.70
40868;DHT22;26586;50.708;22.412;2023-09-19T15:23:39;23.20;69.40
40868;DHT22;26586;50.708;22.412;2023-09-19T15:26:12;23.20;69.20
40868;DHT22;26586;50.708;22.412;2023-09-19T15:28:40;23.20;68.70
40868;DHT22;26586;50.708;22.412;2023-09-19T15:31:08;23.20;68.20
40868;DHT22;26586;50.708;22.412;2023-09-19T15:33:35;23.20;68.40
40868;DHT22;26586;50.708;22.412;2023-09-19T15:38:55;23.20;68.00
40868;DHT22;26586;50.708;22.412;2023-09-19T15:41:23;23.20;68.00
40868;DHT22;26586;50.708;22.412;2023-09-19T15:43:50;23.20;68.10
40868;DHT22;26586;50.708;22.412;2023-09-19T15:46:16;23.20;68.00
40868;DHT22;26586;50.708;22.412;2023-09-19T15:48:42;23.20;67.80
40868;DHT22;26586;50.708;22.412;2023-09-19T15:51:09;23.20;67.90
40868;DHT22;26586;50.708;22.412;2023-09-19T15:53:52;23.20;68.00
40868;DHT22;26586;50.708;22.412;2023-09-19T15:56:20;23.20;68.00
40868;DHT22;26586;50.708;22.412;2023-09-19T15:58:54;23.20;68.10
40868;DHT22;26586;50.708;22.412;2023-09-19T16:01:22;23.20;68.20
40868;DHT22;26586;50.708;22.412;2023-09-19T16:03:50;23.20;68.20
40868;DHT22;26586;50.708;22.412;2023-09-19T16:06:22;23.20;68.40
40868;DHT22;26586;50.708;22.412;2023-09-19T16:08:51;23.20;68.40
40868;DHT22;26586;50.708;22.412;2023-09-19T16:11:20;23.20;68.60
40868;DHT22;26586;50.708;22.412;2023-09-19T16:13:52;23.20;68.60
40868;DHT22;26586;50.708;22.412;2023-09-19T16:16:20;23.20;68.70
40868;DHT22;26586;50.708;22.412;2023-09-19T16:18:51;23.20;69.00
40868;DHT22;26586;50.708;22.412;2023-09-19T16:21:20;23.20;68.80
40868;DHT22;26586;50.708;22.412;2023-09-19T16:23:50;23.20;69.30
40868;DHT22;26586;50.708;22.412;2023-09-19T16:26:17;23.20;69.20
40868;DHT22;26586;50.708;22.412;2023-09-19T16:28:47;23.20;69.50
40868;DHT22;26586;50.708;22.412;2023-09-19T16:31:15;23.20;69.30